createdAt,value
2019-05-10T00:00:05.259Z,95831.73
2019-05-10T00:02:53.475Z,95831.44
2019-05-10T00:05:41.601Z,95836.23
2019-05-10T00:08:27.529Z,95830.72
2019-05-10T00:11:04.019Z,95825.80
2019-05-10T00:13:33.976Z,95830.22
2019-05-10T00:16:02.389Z,95822.21
2019-05-10T00:18:29.388Z,95828.77
2019-05-10T00:20:58.929Z,95825.63
2019-05-10T00:23:25.835Z,95815.72
2019-05-10T00:25:53.108Z,95816.86
2019-05-10T00:28:20.277Z,95813.49
2019-05-10T00:30:47.586Z,95819.64
2019-05-10T00:33:15.234Z,95816.27
2019-05-10T00:35:42.460Z,95818.55
2019-05-10T00:38:09.659Z,95816.34
2019-05-10T00:40:36.871Z,95814.32
2019-05-10T00:43:04.210Z,95814.45
2019-05-10T00:45:31.351Z,95817.31
2019-05-10T00:47:59.609Z,95822.86
2019-05-10T00:50:26.602Z,95819.72
2019-05-10T00:52:53.673Z,95818.86
2019-05-10T00:55:23.037Z,95816.28
2019-05-10T00:57:50.574Z,95821.06
2019-05-10T01:00:18.571Z,95827.40
2019-05-10T01:02:46.235Z,95829.60
2019-05-10T01:05:13.431Z,95828.15
2019-05-10T01:07:40.485Z,95829.41
2019-05-10T01:10:08.790Z,95823.92
2019-05-10T01:12:36.226Z,95829.46
2019-05-10T01:15:07.555Z,95830.19
2019-05-10T01:17:34.646Z,95826.59
2019-05-10T01:20:05.085Z,95831.94
2019-05-10T01:22:33.476Z,95828.78
2019-05-10T01:25:03.259Z,95834.54
2019-05-10T01:27:30.534Z,95828.45
2019-05-10T01:29:57.776Z,95832.11
2019-05-10T01:32:25.367Z,95825.45
2019-05-10T01:34:52.411Z,95829.08
2019-05-10T01:37:19.685Z,95825.95
2019-05-10T01:39:47.124Z,95827.30
2019-05-10T01:42:14.327Z,95829.79
2019-05-10T01:44:41.566Z,95825.73
2019-05-10T01:47:09.238Z,95833.06
2019-05-10T01:49:37.635Z,95827.08
2019-05-10T01:52:04.734Z,95823.44
2019-05-10T01:54:33.063Z,95825.58
2019-05-10T01:57:00.230Z,95822.53
2019-05-10T01:59:28.324Z,95830.53
2019-05-10T02:01:55.455Z,95827.70
2019-05-10T02:04:22.917Z,95836.23
2019-05-10T02:06:50.096Z,95832.05
2019-05-10T02:09:17.374Z,95834.20
2019-05-10T02:11:44.520Z,95831.48
2019-05-10T02:14:12.119Z,95831.71
2019-05-10T02:16:39.443Z,95837.13
2019-05-10T02:19:06.629Z,95833.06
2019-05-10T02:21:33.963Z,95836.19
2019-05-10T02:24:01.363Z,95840.47
2019-05-10T02:26:29.921Z,95833.48
2019-05-10T02:28:57.042Z,95835.05
2019-05-10T02:31:24.265Z,95832.72
2019-05-10T02:33:51.352Z,95837.91
2019-05-10T02:36:18.764Z,95830.13
2019-05-10T02:38:46.707Z,95835.55
2019-05-10T02:41:13.735Z,95833.75
2019-05-10T02:43:41.721Z,95828.34
2019-05-10T02:46:08.912Z,95823.83
2019-05-10T02:48:36.734Z,95831.16
2019-05-10T02:51:03.732Z,95836.16
2019-05-10T02:53:32.209Z,95834.71
2019-05-10T02:55:59.741Z,95840.47
2019-05-10T02:58:26.895Z,95840.05
2019-05-10T03:00:58.514Z,95842.31
2019-05-10T03:03:34.496Z,95850.78
2019-05-10T03:06:01.751Z,95844.92
2019-05-10T03:08:37.944Z,95842.58
2019-05-10T03:11:04.956Z,95838.52
2019-05-10T03:13:32.308Z,95843.16
2019-05-10T03:16:02.233Z,95838.64
2019-05-10T03:18:31.660Z,95848.69
2019-05-10T03:20:59.865Z,95844.73
2019-05-10T03:23:27.920Z,95844.52
2019-05-10T03:25:56.085Z,95851.29
2019-05-10T03:28:23.092Z,95858.42
2019-05-10T03:30:50.441Z,95866.17
2019-05-10T03:33:18.166Z,95865.95
2019-05-10T03:35:47.725Z,95861.20
2019-05-10T03:38:14.708Z,95866.12
2019-05-10T03:40:42.274Z,95856.09
2019-05-10T03:43:09.368Z,95859.75
2019-05-10T03:45:36.880Z,95859.77
2019-05-10T03:48:04.393Z,95855.10
2019-05-10T03:50:31.527Z,95858.35
2019-05-10T03:52:58.659Z,95871.51
2019-05-10T03:55:25.911Z,95862.86
2019-05-10T03:57:53.210Z,95868.09
2019-05-10T04:00:23.078Z,95863.80
2019-05-10T04:02:50.475Z,95861.44
2019-05-10T04:05:17.653Z,95869.02
2019-05-10T04:07:44.703Z,95866.52
2019-05-10T04:10:13.225Z,95883.86
2019-05-10T04:12:40.256Z,95884.13
2019-05-10T04:15:08.687Z,95886.94
2019-05-10T04:17:36.893Z,95885.48
2019-05-10T04:20:06.246Z,95889.87
2019-05-10T04:22:33.040Z,95891.22
2019-05-10T04:25:01.413Z,95890.56
2019-05-10T04:27:32.457Z,95891.70
2019-05-10T04:29:57.789Z,95895.37
2019-05-10T04:32:24.789Z,95895.59
2019-05-10T04:34:53.269Z,95893.94
2019-05-10T04:37:20.235Z,95895.25
2019-05-10T04:39:47.967Z,95897.88
2019-05-10T04:42:15.284Z,95894.47
2019-05-10T04:44:42.540Z,95898.89
2019-05-10T04:47:10.037Z,95897.53
2019-05-10T04:49:37.212Z,95900.32
2019-05-10T04:52:04.284Z,95900.32
2019-05-10T04:54:31.595Z,95901.11
2019-05-10T04:57:00.194Z,95907.54
2019-05-10T04:59:27.425Z,95910.12
2019-05-10T05:01:54.966Z,95912.27
2019-05-10T05:04:22.995Z,95906.20
2019-05-10T05:06:50.020Z,95905.67
2019-05-10T05:09:17.024Z,95915.70
2019-05-10T05:11:44.048Z,95912.94
2019-05-10T05:14:12.704Z,95913.27
2019-05-10T05:16:40.823Z,95911.61
2019-05-10T05:19:07.992Z,95918.91
2019-05-10T05:21:35.171Z,95915.26
2019-05-10T05:24:03.126Z,95918.14
2019-05-10T05:26:32.893Z,95916.34
2019-05-10T05:28:59.911Z,95929.70
2019-05-10T05:31:28.577Z,95929.36
2019-05-10T05:33:59.205Z,95928.90
2019-05-10T05:36:24.544Z,95930.91
2019-05-10T05:38:52.113Z,95939.58
2019-05-10T05:41:19.607Z,95949.61
2019-05-10T05:43:48.207Z,95944.02
2019-05-10T05:46:15.505Z,95948.01
2019-05-10T05:48:42.818Z,95947.98
2019-05-10T05:51:10.169Z,95947.56
2019-05-10T05:53:42.347Z,95957.09
2019-05-10T05:56:12.677Z,95955.52
2019-05-10T05:58:38.252Z,95950.64
2019-05-10T06:01:04.442Z,95959.81
2019-05-10T06:03:33.833Z,95961.17
2019-05-10T06:06:00.840Z,95961.17
2019-05-10T06:08:30.068Z,95963.26
2019-05-10T06:10:59.580Z,95960.32
2019-05-10T06:13:30.218Z,95970.64
2019-05-10T06:16:00.055Z,95967.92
2019-05-10T06:18:26.644Z,95974.16
2019-05-10T06:20:53.656Z,95968.70
2019-05-10T06:23:21.076Z,95972.42
2019-05-10T06:25:47.981Z,95972.85
2019-05-10T06:28:26.253Z,95968.02
2019-05-10T06:30:44.993Z,95971.73
2019-05-10T06:33:13.337Z,95969.86
2019-05-10T06:35:41.183Z,95967.59
2019-05-10T06:38:08.129Z,95969.98
2019-05-10T06:40:44.320Z,95967.73
2019-05-10T06:43:07.030Z,95971.06
2019-05-10T06:45:33.400Z,95969.55
2019-05-10T06:48:00.651Z,95972.30
2019-05-10T06:50:29.979Z,95974.09
2019-05-10T06:53:00.793Z,95978.39
2019-05-10T06:55:28.035Z,95982.47
2019-05-10T06:57:59.307Z,95985.20
2019-05-10T07:00:23.763Z,95983.05
2019-05-10T07:02:51.081Z,95985.20
2019-05-10T07:05:19.017Z,95989.08
2019-05-10T07:07:46.928Z,95983.20
2019-05-10T07:10:19.050Z,95990.02
2019-05-10T07:12:45.264Z,95987.69
2019-05-10T07:15:13.015Z,95990.41
2019-05-10T07:17:45.417Z,95996.64
2019-05-10T07:20:09.599Z,96002.48
2019-05-10T07:22:36.719Z,96007.58
2019-05-10T07:25:07.567Z,96004.48
2019-05-10T07:27:36.552Z,95992.64
2019-05-10T07:30:05.475Z,95991.49
2019-05-10T07:32:32.480Z,95998.91
2019-05-10T07:35:00.997Z,96000.70
2019-05-10T07:37:28.433Z,96004.05
2019-05-10T07:39:55.537Z,95998.84
2019-05-10T07:42:22.483Z,96005.31
2019-05-10T07:44:49.688Z,95998.98
2019-05-10T07:47:23.997Z,96005.03
2019-05-10T07:49:47.985Z,96008.81
2019-05-10T07:52:15.311Z,96010.25
2019-05-10T07:54:45.042Z,96011.48
2019-05-10T07:57:11.440Z,96014.28
2019-05-10T07:59:49.918Z,96013.36
2019-05-10T08:02:13.042Z,96008.74
2019-05-10T08:04:38.457Z,96015.84
2019-05-10T08:07:09.818Z,96020.79
2019-05-10T08:09:37.147Z,96019.70
2019-05-10T08:12:05.300Z,96016.63
2019-05-10T08:14:32.535Z,96006.72
2019-05-10T08:17:05.867Z,96022.22
2019-05-10T08:19:32.901Z,96017.77
2019-05-10T08:22:01.822Z,96019.76
2019-05-10T08:24:26.449Z,96023.66
2019-05-10T08:26:55.492Z,96028.38
2019-05-10T08:29:22.671Z,96023.72
2019-05-10T08:31:55.247Z,96021.45
2019-05-10T08:34:19.790Z,96022.86
2019-05-10T08:36:47.850Z,96031.89
2019-05-10T08:39:15.008Z,96033.11
2019-05-10T08:41:42.886Z,96036.25
2019-05-10T08:44:19.103Z,96041.13
2019-05-10T08:46:41.387Z,96042.30
2019-05-10T08:49:09.399Z,96036.51
2019-05-10T08:51:43.958Z,96044.13
2019-05-10T08:54:06.132Z,96047.86
2019-05-10T08:56:33.437Z,96052.20
2019-05-10T08:59:03.688Z,96050.05
2019-05-10T09:01:31.365Z,96055.52
2019-05-10T09:04:01.973Z,96043.43
2019-05-10T09:06:28.190Z,96061.61
2019-05-10T09:09:01.550Z,96068.81
2019-05-10T09:11:23.926Z,96054.78
2019-05-10T09:13:53.175Z,96063.97
2019-05-10T09:16:19.768Z,96060.69
2019-05-10T09:18:50.621Z,96060.73
2019-05-10T09:21:16.139Z,96060.78
2019-05-10T09:23:43.542Z,96061.77
2019-05-10T09:26:16.259Z,96064.51
2019-05-10T09:28:41.945Z,96063.92
2019-05-10T09:31:18.601Z,96066.28
2019-05-10T09:33:41.022Z,96070.97
2019-05-10T09:36:07.146Z,96078.22
2019-05-10T09:38:39.052Z,96075.48
2019-05-10T09:41:03.622Z,96071.62
2019-05-10T09:43:31.986Z,96074.39
2019-05-10T09:46:02.514Z,96072.51
2019-05-10T09:48:29.449Z,96076.50
2019-05-10T09:51:00.806Z,96075.95
2019-05-10T09:53:27.473Z,96076.15
2019-05-10T09:56:00.196Z,96079.84
2019-05-10T09:58:23.408Z,96082.17
2019-05-10T10:00:50.646Z,96091.52
2019-05-10T10:03:17.952Z,96082.08
2019-05-10T10:05:48.031Z,96079.90
2019-05-10T10:08:14.155Z,96076.20
2019-05-10T10:10:42.635Z,96075.86
2019-05-10T10:13:13.687Z,96089.97
2019-05-10T10:15:38.817Z,96087.44
2019-05-10T10:18:05.987Z,96085.73
2019-05-10T10:20:42.969Z,96092.36
2019-05-10T10:23:06.988Z,96092.39
2019-05-10T10:25:35.082Z,96091.42
2019-05-10T10:28:07.587Z,96092.23
2019-05-10T10:30:31.740Z,96089.16
2019-05-10T10:32:59.006Z,96099.95
2019-05-10T10:35:27.703Z,96098.20
2019-05-10T10:37:57.613Z,96101.95
2019-05-10T10:40:24.227Z,96100.59
2019-05-10T10:42:51.536Z,96102.37
2019-05-10T10:45:18.667Z,96104.30
2019-05-10T10:47:47.265Z,96104.49
2019-05-10T10:50:17.072Z,96108.78
2019-05-10T10:52:43.577Z,96110.14
2019-05-10T10:55:11.913Z,96115.97
2019-05-10T10:57:39.853Z,96122.80
2019-05-10T11:00:09.766Z,96121.61
2019-05-10T11:02:36.874Z,96131.56
2019-05-10T11:05:05.944Z,96135.09
2019-05-10T11:07:35.765Z,96135.30
2019-05-10T11:10:15.377Z,96138.81
2019-05-10T11:12:34.016Z,96136.66
2019-05-10T11:15:01.302Z,96139.42
2019-05-10T11:17:30.672Z,96139.65
2019-05-10T11:19:57.261Z,96137.91
2019-05-10T11:22:27.238Z,96136.00
2019-05-10T11:25:01.302Z,96131.70
2019-05-10T11:27:22.399Z,96131.92
2019-05-10T11:29:52.894Z,96126.05
2019-05-10T11:32:18.152Z,96132.73
2019-05-10T11:34:45.195Z,96133.70
2019-05-10T11:37:14.771Z,96140.16
2019-05-10T11:39:46.702Z,96126.28
2019-05-10T11:42:11.883Z,96125.69
2019-05-10T11:44:41.514Z,96128.83
2019-05-10T11:47:20.954Z,96132.34
2019-05-10T11:49:40.494Z,96133.91
2019-05-10T11:52:10.014Z,96134.11
2019-05-10T11:54:36.694Z,96133.55
2019-05-10T11:57:09.674Z,96130.22
2019-05-10T11:59:38.425Z,96128.84
2019-05-10T12:02:02.869Z,96129.05
2019-05-10T12:04:38.977Z,96127.49
2019-05-10T12:07:02.782Z,96123.19
2019-05-10T12:09:31.631Z,96126.52
2019-05-10T12:12:03.015Z,96126.12
2019-05-10T12:14:27.739Z,96133.57
2019-05-10T12:16:54.952Z,96127.28
2019-05-10T12:19:22.359Z,96130.42
2019-05-10T12:21:52.554Z,96137.68
2019-05-10T12:24:33.637Z,96138.27
2019-05-10T12:27:13.206Z,96136.52
2019-05-10T12:29:17.402Z,96145.51
2019-05-10T12:31:50.942Z,96142.77
2019-05-10T12:34:14.571Z,96147.67
2019-05-10T12:36:43.521Z,96144.70
2019-05-10T12:39:11.759Z,96153.30
2019-05-10T12:41:45.089Z,96153.86
2019-05-10T12:44:07.879Z,96157.78
2019-05-10T12:46:34.676Z,96157.77
2019-05-10T12:49:04.818Z,96158.75
2019-05-10T12:51:31.351Z,96160.32
2019-05-10T12:53:58.749Z,96157.60
2019-05-10T12:56:26.655Z,96158.58
2019-05-10T12:58:57.667Z,96165.06
2019-05-10T13:01:25.543Z,96166.64
2019-05-10T13:03:52.238Z,96163.31
2019-05-10T13:06:19.801Z,96162.34
2019-05-10T13:08:47.121Z,96159.98
2019-05-10T13:11:19.171Z,96168.02
2019-05-10T13:13:43.268Z,96165.30
2019-05-10T13:16:11.969Z,96163.34
2019-05-10T13:18:50.467Z,96167.06
2019-05-10T13:21:20.031Z,96166.47
2019-05-10T13:23:37.799Z,96159.99
2019-05-10T13:26:05.031Z,96167.63
2019-05-10T13:28:32.148Z,96166.83
2019-05-10T13:30:59.741Z,96166.04
2019-05-10T13:33:29.487Z,96164.46
2019-05-10T13:35:58.700Z,96164.45
2019-05-10T13:38:26.730Z,96169.72
2019-05-10T13:40:53.899Z,96163.25
2019-05-10T13:43:26.654Z,96164.02
2019-05-10T13:45:50.343Z,96163.02
2019-05-10T13:48:17.380Z,96167.72
2019-05-10T13:50:44.366Z,96170.44
2019-05-10T13:53:19.691Z,96171.98
2019-05-10T13:55:42.594Z,96171.98
2019-05-10T13:58:10.014Z,96178.65
2019-05-10T14:00:37.080Z,96180.05
2019-05-10T14:03:05.020Z,96180.66
2019-05-10T14:05:33.190Z,96181.66
2019-05-10T14:08:00.625Z,96188.76
2019-05-10T14:10:27.540Z,96197.80
2019-05-10T14:13:01.937Z,96202.31
2019-05-10T14:15:23.883Z,96204.29
2019-05-10T14:17:50.965Z,96206.42
2019-05-10T14:20:24.815Z,96215.44
2019-05-10T14:22:55.440Z,96218.17
2019-05-10T14:25:17.557Z,96217.97
2019-05-10T14:27:44.730Z,96227.77
2019-05-10T14:30:15.843Z,96237.33
2019-05-10T14:32:41.169Z,96238.46
2019-05-10T14:35:08.985Z,96237.44
2019-05-10T14:37:35.882Z,96240.92
2019-05-10T14:40:05.906Z,96244.57
2019-05-10T14:42:33.684Z,96256.45
2019-05-10T14:45:00.866Z,96266.34
2019-05-10T14:47:27.969Z,96277.05
2019-05-10T14:49:55.427Z,96273.48
2019-05-10T14:52:22.886Z,96277.34
2019-05-10T14:54:55.434Z,96285.89
2019-05-10T14:57:18.991Z,96282.56
2019-05-10T14:59:46.215Z,96291.98
2019-05-10T15:02:17.014Z,96294.13
2019-05-10T15:04:46.263Z,96288.08
2019-05-10T15:07:14.367Z,96291.44
2019-05-10T15:09:41.971Z,96293.02
2019-05-10T15:12:10.173Z,96291.08
2019-05-10T15:14:38.306Z,96295.02
2019-05-10T15:17:05.478Z,96302.43
2019-05-10T15:19:32.742Z,96303.92
2019-05-10T15:21:59.752Z,96313.50
2019-05-10T15:24:26.903Z,96313.25
2019-05-10T15:26:53.939Z,96318.55
2019-05-10T15:29:22.384Z,96318.34
2019-05-10T15:31:49.908Z,96314.81
2019-05-10T15:34:17.255Z,96317.94
2019-05-10T15:36:44.343Z,96316.20
2019-05-10T15:39:11.762Z,96322.83
2019-05-10T15:41:38.899Z,96324.77
2019-05-10T15:44:06.015Z,96327.87
2019-05-10T15:46:38.778Z,96325.13
2019-05-10T15:49:02.652Z,96326.41
2019-05-10T15:51:36.167Z,96329.09
2019-05-10T15:54:04.985Z,96322.93
2019-05-10T15:56:27.735Z,96322.66
2019-05-10T15:58:55.076Z,96322.17
2019-05-10T16:01:27.005Z,96316.80
2019-05-10T16:03:51.671Z,96319.47
2019-05-10T16:06:19.312Z,96323.52
2019-05-10T16:08:46.488Z,96316.10
2019-05-10T16:11:18.737Z,96317.31
2019-05-10T16:13:42.391Z,96322.62
2019-05-10T16:16:09.223Z,96310.53
2019-05-10T16:18:40.113Z,96312.13
2019-05-10T16:21:09.723Z,96311.56
2019-05-10T16:23:35.314Z,96315.12
2019-05-10T16:26:02.384Z,96319.67
2019-05-10T16:28:29.634Z,96318.36
2019-05-10T16:30:57.063Z,96317.84
2019-05-10T16:33:24.274Z,96325.56
2019-05-10T16:35:52.073Z,96328.76
2019-05-10T16:38:19.319Z,96325.25
2019-05-10T16:40:57.126Z,96326.83
2019-05-10T16:43:22.207Z,96337.02
2019-05-10T16:45:44.860Z,96344.28
2019-05-10T16:48:12.243Z,96343.09
2019-05-10T16:50:39.931Z,96342.49
2019-05-10T16:53:08.218Z,96343.66
2019-05-10T16:55:40.375Z,96343.66
2019-05-10T16:58:09.120Z,96345.39
2019-05-10T17:00:33.714Z,96352.23
2019-05-10T17:03:00.755Z,96354.18
2019-05-10T17:05:27.874Z,96359.49
2019-05-10T17:07:58.784Z,96363.59
2019-05-10T17:10:27.019Z,96357.70
2019-05-10T17:12:53.134Z,96360.81
2019-05-10T17:15:20.245Z,96365.27
2019-05-10T17:17:47.570Z,96357.18
2019-05-10T17:20:15.969Z,96366.69
2019-05-10T17:22:44.361Z,96370.31
2019-05-10T17:25:11.783Z,96376.44
2019-05-10T17:27:39.014Z,96380.27
2019-05-10T17:30:06.666Z,96376.88
2019-05-10T17:32:33.955Z,96386.36
2019-05-10T17:35:04.563Z,96389.59
2019-05-10T17:37:35.791Z,96392.45
2019-05-10T17:39:59.633Z,96386.69
2019-05-10T17:42:26.773Z,96388.58
2019-05-10T17:44:55.417Z,96391.22
2019-05-10T17:47:27.041Z,96397.63
2019-05-10T17:49:52.294Z,96401.33
2019-05-10T17:52:19.441Z,96401.33
2019-05-10T17:54:46.765Z,96406.00
2019-05-10T17:57:16.567Z,96408.73
2019-05-10T17:59:47.082Z,96402.48
2019-05-10T18:02:12.203Z,96403.84
2019-05-10T18:04:39.199Z,96399.96
2019-05-10T18:07:06.928Z,96394.56
2019-05-10T18:09:34.670Z,96410.89
2019-05-10T18:12:01.554Z,96410.09
2019-05-10T18:14:29.634Z,96405.00
2019-05-10T18:16:56.827Z,96409.09
2019-05-10T18:19:26.397Z,96411.83
2019-05-10T18:21:55.009Z,96411.83
2019-05-10T18:24:30.091Z,96415.50
2019-05-10T18:26:56.847Z,96420.96
2019-05-10T18:29:24.216Z,96427.00
2019-05-10T18:31:56.333Z,96430.31
2019-05-10T18:34:20.361Z,96435.56
2019-05-10T18:36:51.861Z,96432.94
2019-05-10T18:39:17.784Z,96439.09
2019-05-10T18:41:46.674Z,96436.20
2019-05-10T18:44:15.834Z,96446.97
2019-05-10T18:46:42.828Z,96450.42
2019-05-10T18:49:09.851Z,96454.94
2019-05-10T18:51:37.498Z,96457.34
2019-05-10T18:54:04.847Z,96459.52
2019-05-10T18:56:33.175Z,96441.98
2019-05-10T18:59:06.547Z,96463.14
2019-05-10T19:01:32.865Z,96468.47
2019-05-10T19:03:58.717Z,96465.54
2019-05-10T19:06:26.144Z,96477.76
2019-05-10T19:08:53.504Z,96481.41
2019-05-10T19:11:20.605Z,96481.41
2019-05-10T19:13:53.376Z,96484.41
2019-05-10T19:16:16.726Z,96482.34
2019-05-10T19:18:43.652Z,96482.34
2019-05-10T19:21:10.992Z,96482.50
2019-05-10T19:23:38.056Z,96482.98
2019-05-10T19:26:05.272Z,96486.29
2019-05-10T19:28:32.685Z,96496.56
2019-05-10T19:31:00.492Z,96491.82
2019-05-10T19:33:29.725Z,96498.55
2019-05-10T19:35:56.528Z,96497.34
2019-05-10T19:38:24.033Z,96504.07
2019-05-10T19:40:50.980Z,96509.38
2019-05-10T19:43:21.897Z,96508.14
2019-05-10T19:45:51.089Z,96506.50
2019-05-10T19:48:16.384Z,96515.38
2019-05-10T19:50:43.858Z,96507.84
2019-05-10T19:53:10.895Z,96507.84
2019-05-10T19:55:38.050Z,96515.16
2019-05-10T19:58:05.130Z,96513.48
2019-05-10T20:00:32.364Z,96522.95
2019-05-10T20:02:59.716Z,96528.53
2019-05-10T20:05:26.689Z,96533.91
2019-05-10T20:07:53.591Z,96538.47
2019-05-10T20:10:21.450Z,96543.82
2019-05-10T20:12:48.556Z,96546.79
2019-05-10T20:15:15.908Z,96546.84
2019-05-10T20:17:43.229Z,96542.25
2019-05-10T20:20:11.003Z,96543.86
2019-05-10T20:22:37.936Z,96554.67
2019-05-10T20:25:06.776Z,96549.06
2019-05-10T20:27:33.960Z,96552.25
2019-05-10T20:30:01.306Z,96547.08
2019-05-10T20:32:28.973Z,96544.83
2019-05-10T20:34:55.963Z,96549.84
2019-05-10T20:37:22.939Z,96554.17
2019-05-10T20:39:50.251Z,96557.61
2019-05-10T20:42:17.593Z,96556.14
2019-05-10T20:44:44.811Z,96564.20
2019-05-10T20:47:11.905Z,96555.95
2019-05-10T20:49:39.035Z,96558.80
2019-05-10T20:52:06.714Z,96562.58
2019-05-10T20:54:34.188Z,96559.74
2019-05-10T20:57:01.174Z,96564.77
2019-05-10T20:59:28.254Z,96571.11
2019-05-10T21:01:55.294Z,96566.13
2019-05-10T21:04:22.309Z,96570.58
2019-05-10T21:06:49.646Z,96564.47
2019-05-10T21:09:16.795Z,96564.36
2019-05-10T21:11:43.964Z,96566.42
2019-05-10T21:14:11.029Z,96570.05
2019-05-10T21:16:37.942Z,96570.39
2019-05-10T21:19:05.130Z,96570.53
2019-05-10T21:21:32.134Z,96573.25
2019-05-10T21:23:59.195Z,96569.17
2019-05-10T21:26:26.247Z,96573.03
2019-05-10T21:28:53.334Z,96577.33
2019-05-10T21:31:20.354Z,96579.83
2019-05-10T21:33:47.479Z,96582.31
2019-05-10T21:36:14.508Z,96575.97
2019-05-10T21:38:41.987Z,96576.91
2019-05-10T21:41:09.580Z,96581.33
2019-05-10T21:43:36.801Z,96579.17
2019-05-10T21:46:03.777Z,96584.16
2019-05-10T21:48:31.162Z,96579.29
2019-05-10T21:50:58.114Z,96585.86
2019-05-10T21:53:26.342Z,96590.50
2019-05-10T21:55:53.662Z,96594.34
2019-05-10T21:58:20.755Z,96588.72
2019-05-10T22:00:50.586Z,96591.43
2019-05-10T22:03:18.290Z,96592.42
2019-05-10T22:05:45.650Z,96588.34
2019-05-10T22:08:13.117Z,96586.98
2019-05-10T22:10:40.382Z,96583.93
2019-05-10T22:13:07.724Z,96584.16
2019-05-10T22:15:34.866Z,96585.97
2019-05-10T22:18:01.995Z,96589.48
2019-05-10T22:20:29.385Z,96590.39
2019-05-10T22:22:56.432Z,96589.37
2019-05-10T22:25:23.277Z,96596.50
2019-05-10T22:27:50.473Z,96600.16
2019-05-10T22:30:18.219Z,96592.11
2019-05-10T22:32:45.252Z,96600.14
2019-05-10T22:35:12.204Z,96594.85
2019-05-10T22:37:39.668Z,96586.58
2019-05-10T22:40:07.550Z,96589.86
2019-05-10T22:42:35.410Z,96588.17
2019-05-10T22:45:04.713Z,96590.09
2019-05-10T22:47:32.788Z,96591.67
2019-05-10T22:49:59.837Z,96591.67
2019-05-10T22:52:27.316Z,96591.57
2019-05-10T22:54:54.458Z,96596.06
2019-05-10T22:57:21.732Z,96590.30
2019-05-10T22:59:48.754Z,96587.81
2019-05-10T23:02:16.010Z,96578.97
2019-05-10T23:04:43.074Z,96583.53
2019-05-10T23:07:10.284Z,96586.50
2019-05-10T23:09:37.363Z,96587.73
2019-05-10T23:12:04.518Z,96588.08
2019-05-10T23:14:31.771Z,96583.77
2019-05-10T23:16:59.025Z,96586.72
2019-05-10T23:19:26.502Z,96587.19
2019-05-10T23:21:53.747Z,96584.92
2019-05-10T23:24:23.001Z,96584.49
2019-05-10T23:26:50.196Z,96585.17
2019-05-10T23:29:17.656Z,96575.68
2019-05-10T23:31:44.607Z,96582.91
2019-05-10T23:34:11.758Z,96580.67
2019-05-10T23:36:39.118Z,96578.63
2019-05-10T23:39:06.998Z,96575.25
2019-05-10T23:41:34.193Z,96579.33
2019-05-10T23:44:01.302Z,96576.38
2019-05-10T23:46:28.449Z,96573.67
2019-05-10T23:48:55.605Z,96581.36
2019-05-10T23:51:23.061Z,96579.54
2019-05-10T23:53:50.226Z,96588.39
2019-05-10T23:56:17.470Z,96580.91
2019-05-10T23:58:44.747Z,96587.01
